createdAt,value
2023-05-05T00:01:16.250Z,10.56
2023-05-05T00:03:43.200Z,10.54
2023-05-05T00:06:10.123Z,10.56
2023-05-05T00:08:37.364Z,10.53
2023-05-05T00:11:04.251Z,10.52
2023-05-05T00:13:31.529Z,10.47
2023-05-05T00:15:58.301Z,10.44
2023-05-05T00:18:25.470Z,10.36
2023-05-05T00:20:52.442Z,10.28
2023-05-05T00:23:20.264Z,10.17
2023-05-05T00:25:47.141Z,10.11
2023-05-05T00:28:14.082Z,10.10
2023-05-05T00:30:41.566Z,10.05
2023-05-05T00:33:09.828Z,9.99
2023-05-05T00:35:36.761Z,9.96
2023-05-05T00:38:03.730Z,9.97
2023-05-05T00:40:31.247Z,9.93
2023-05-05T00:42:58.158Z,9.89
2023-05-05T00:45:26.336Z,9.87
2023-05-05T00:47:59.018Z,9.89
2023-05-05T00:50:31.386Z,9.83
2023-05-05T00:53:02.442Z,9.77
2023-05-05T00:55:33.736Z,9.71
2023-05-05T00:58:02.338Z,9.65
2023-05-05T01:00:30.910Z,9.60
2023-05-05T01:02:59.835Z,9.55
2023-05-05T01:05:42.448Z,9.54
2023-05-05T01:08:43.332Z,9.53
2023-05-05T01:11:18.648Z,9.48
2023-05-05T01:14:00.993Z,9.43
2023-05-05T01:16:31.337Z,9.43
2023-05-05T01:19:01.210Z,9.36
2023-05-05T01:21:33.711Z,9.32
2023-05-05T01:24:15.458Z,9.29
2023-05-05T01:27:19.784Z,9.34
2023-05-05T01:30:05.470Z,9.33
2023-05-05T01:32:38.700Z,9.33
2023-05-05T01:35:38.023Z,9.23
2023-05-05T01:38:22.363Z,9.15
2023-05-05T01:40:58.057Z,9.09
2023-05-05T01:43:29.958Z,9.10
2023-05-05T01:45:59.437Z,9.12
2023-05-05T01:48:26.728Z,9.08
2023-05-05T01:50:54.287Z,9.00
2023-05-05T01:53:24.397Z,9.03
2023-05-05T01:55:54.196Z,9.00
2023-05-05T01:58:23.643Z,8.96
2023-05-05T02:00:51.778Z,8.94
2023-05-05T02:03:20.913Z,8.95
2023-05-05T02:05:50.269Z,8.91
2023-05-05T02:08:17.929Z,8.86
2023-05-05T02:10:47.285Z,8.81
2023-05-05T02:13:15.191Z,8.77
2023-05-05T02:15:44.303Z,8.74
2023-05-05T02:18:11.771Z,8.75
2023-05-05T02:20:40.454Z,8.79
2023-05-05T02:23:08.438Z,8.77
2023-05-05T02:25:50.497Z,8.76
2023-05-05T02:28:35.093Z,8.73
2023-05-05T02:31:05.991Z,8.69
2023-05-05T02:33:35.287Z,8.61
2023-05-05T02:36:11.480Z,8.51
2023-05-05T02:38:53.206Z,8.47
2023-05-05T02:41:23.737Z,8.46
2023-05-05T02:43:54.147Z,8.42
2023-05-05T02:46:21.901Z,8.36
2023-05-05T02:48:48.717Z,8.32
2023-05-05T02:51:15.612Z,8.29
2023-05-05T02:53:42.779Z,8.28
2023-05-05T02:56:14.880Z,8.23
2023-05-05T02:59:00.291Z,8.23
2023-05-05T03:01:54.874Z,8.20
2023-05-05T03:04:37.389Z,8.27
2023-05-05T03:07:12.235Z,8.32
2023-05-05T03:09:46.778Z,8.24
2023-05-05T03:12:21.225Z,8.18
2023-05-05T03:15:15.431Z,8.14
2023-05-05T03:17:44.381Z,8.14
2023-05-05T03:20:12.752Z,8.11
2023-05-05T03:22:42.580Z,8.04
2023-05-05T03:25:13.038Z,8.05
2023-05-05T03:27:40.999Z,8.01
2023-05-05T03:30:09.657Z,7.97
2023-05-05T03:32:44.766Z,7.94
2023-05-05T03:35:11.784Z,7.89
2023-05-05T03:37:38.825Z,7.89
2023-05-05T03:40:06.345Z,7.90
2023-05-05T03:42:33.568Z,7.87
2023-05-05T03:45:00.372Z,7.83
2023-05-05T03:47:28.107Z,7.81
2023-05-05T03:49:56.582Z,7.78
2023-05-05T03:52:23.377Z,7.73
2023-05-05T03:54:50.540Z,7.77
2023-05-05T03:57:18.372Z,7.82
2023-05-05T03:59:45.216Z,7.79
2023-05-05T04:02:12.896Z,7.80
2023-05-05T04:04:40.299Z,7.77
2023-05-05T04:07:07.229Z,7.77
2023-05-05T04:09:34.038Z,7.80
2023-05-05T04:12:00.981Z,7.82
2023-05-05T04:14:28.037Z,7.86
2023-05-05T04:16:54.949Z,7.85
2023-05-05T04:19:22.587Z,7.87
2023-05-05T04:21:49.548Z,7.88
2023-05-05T04:24:17.150Z,7.90
2023-05-05T04:26:44.858Z,7.93
2023-05-05T04:29:12.018Z,7.90
2023-05-05T04:31:39.517Z,7.99
2023-05-05T04:34:06.473Z,8.07
2023-05-05T04:36:33.512Z,8.11
2023-05-05T04:39:00.690Z,8.21
2023-05-05T04:41:30.104Z,8.27
2023-05-05T04:43:58.101Z,8.24
2023-05-05T04:46:25.747Z,8.35
2023-05-05T04:48:52.685Z,8.44
2023-05-05T04:51:20.933Z,8.48
2023-05-05T04:53:47.772Z,8.54
2023-05-05T04:56:14.708Z,8.62
2023-05-05T04:58:41.707Z,8.70
2023-05-05T05:01:08.554Z,8.76
2023-05-05T05:03:35.492Z,8.82
2023-05-05T05:06:02.579Z,8.82
2023-05-05T05:08:30.372Z,8.91
2023-05-05T05:10:57.181Z,8.99
2023-05-05T05:13:24.655Z,9.01
2023-05-05T05:15:51.956Z,9.10
2023-05-05T05:18:18.872Z,9.13
2023-05-05T05:20:47.508Z,9.16
2023-05-05T05:23:15.377Z,9.24
2023-05-05T05:25:44.319Z,9.29
2023-05-05T05:28:12.770Z,9.32
2023-05-05T05:30:45.894Z,9.41
2023-05-05T05:33:12.874Z,9.50
2023-05-05T05:35:40.705Z,9.57
2023-05-05T05:38:08.289Z,9.66
2023-05-05T05:40:35.485Z,9.73
2023-05-05T05:43:02.720Z,9.81
2023-05-05T05:45:30.054Z,9.90
2023-05-05T05:47:57.024Z,9.98
2023-05-05T05:50:24.217Z,10.07
2023-05-05T05:52:51.047Z,10.16
2023-05-05T05:55:18.875Z,10.27
2023-05-05T05:57:45.625Z,10.40
2023-05-05T06:00:14.528Z,10.52
2023-05-05T06:02:46.266Z,10.66
2023-05-05T06:05:17.244Z,10.65
2023-05-05T06:07:45.638Z,10.69
2023-05-05T06:10:26.724Z,10.80
2023-05-05T06:12:59.640Z,10.91
2023-05-05T06:15:27.640Z,11.02
2023-05-05T06:17:54.758Z,11.12
2023-05-05T06:20:22.750Z,11.23
2023-05-05T06:22:49.563Z,11.38
2023-05-05T06:25:17.647Z,11.50
2023-05-05T06:27:45.249Z,11.60
2023-05-05T06:30:12.829Z,11.73
2023-05-05T06:32:39.615Z,11.83
2023-05-05T06:35:07.100Z,11.94
2023-05-05T06:37:33.962Z,12.06
2023-05-05T06:40:00.774Z,12.15
2023-05-05T06:42:27.771Z,12.25
2023-05-05T06:44:57.504Z,12.38
2023-05-05T06:47:24.419Z,12.42
2023-05-05T06:49:51.325Z,12.48
2023-05-05T06:52:18.066Z,12.55
2023-05-05T06:54:44.916Z,12.63
2023-05-05T06:57:11.834Z,12.72
2023-05-05T06:59:39.099Z,12.78
2023-05-05T07:02:06.414Z,12.86
2023-05-05T07:04:33.188Z,12.95
2023-05-05T07:07:00.001Z,13.05
2023-05-05T07:09:26.906Z,13.11
2023-05-05T07:11:53.608Z,13.19
2023-05-05T07:14:22.710Z,13.29
2023-05-05T07:16:51.047Z,13.35
2023-05-05T07:19:17.906Z,13.41
2023-05-05T07:21:45.055Z,13.46
2023-05-05T07:24:11.828Z,13.47
2023-05-05T07:26:38.752Z,13.51
2023-05-05T07:29:05.662Z,13.58
2023-05-05T07:31:32.870Z,13.68
2023-05-05T07:33:59.664Z,13.80
2023-05-05T07:36:26.928Z,13.86
2023-05-05T07:38:54.479Z,13.88
2023-05-05T07:41:21.935Z,13.92
2023-05-05T07:43:48.905Z,13.94
2023-05-05T07:46:15.784Z,14.02
2023-05-05T07:48:42.880Z,14.10
2023-05-05T07:51:10.151Z,14.21
2023-05-05T07:53:37.396Z,14.28
2023-05-05T07:56:04.339Z,14.31
2023-05-05T07:58:31.285Z,14.32
2023-05-05T08:00:59.351Z,14.26
2023-05-05T08:03:26.624Z,14.18
2023-05-05T08:05:54.728Z,14.20
2023-05-05T08:08:21.956Z,14.30
2023-05-05T08:10:49.930Z,14.39
2023-05-05T08:13:16.878Z,14.47
2023-05-05T08:15:43.816Z,14.52
2023-05-05T08:18:10.713Z,14.62
2023-05-05T08:20:37.686Z,14.68
2023-05-05T08:23:04.680Z,14.71
2023-05-05T08:25:31.619Z,14.78
2023-05-05T08:27:58.512Z,14.86
2023-05-05T08:30:25.374Z,14.91
2023-05-05T08:32:52.181Z,14.98
2023-05-05T08:35:19.081Z,15.03
2023-05-05T08:37:45.974Z,15.06
2023-05-05T08:40:13.650Z,15.03
2023-05-05T08:42:41.084Z,15.02
2023-05-05T08:45:09.963Z,15.04
2023-05-05T08:47:38.382Z,15.11
2023-05-05T08:50:07.138Z,15.22
2023-05-05T08:52:42.912Z,15.28
2023-05-05T08:55:18.189Z,15.37
2023-05-05T08:57:53.201Z,15.45
2023-05-05T09:00:21.317Z,15.48
2023-05-05T09:02:48.833Z,15.56
2023-05-05T09:05:17.773Z,15.64
2023-05-05T09:07:45.053Z,15.68
2023-05-05T09:10:12.557Z,15.72
2023-05-05T09:12:39.992Z,15.74
2023-05-05T09:15:13.915Z,15.82
2023-05-05T09:17:41.897Z,15.88
2023-05-05T09:20:13.399Z,15.94
2023-05-05T09:22:42.252Z,16.00
2023-05-05T09:25:11.681Z,16.07
2023-05-05T09:27:41.053Z,16.15
2023-05-05T09:30:09.752Z,16.15
2023-05-05T09:33:05.044Z,16.20
2023-05-05T09:35:52.659Z,16.25
2023-05-05T09:38:20.827Z,16.38
2023-05-05T09:40:52.493Z,16.45
2023-05-05T09:43:23.795Z,16.51
2023-05-05T09:45:51.085Z,16.53
2023-05-05T09:48:28.804Z,16.59
2023-05-05T09:50:56.746Z,16.61
2023-05-05T09:53:25.075Z,16.61
2023-05-05T09:56:00.259Z,16.75
2023-05-05T09:58:29.601Z,16.80
2023-05-05T10:00:58.297Z,16.83
2023-05-05T10:03:25.729Z,16.94
2023-05-05T10:05:55.949Z,16.95
2023-05-05T10:08:25.505Z,17.02
2023-05-05T10:11:03.230Z,17.09
2023-05-05T10:13:30.958Z,17.12
2023-05-05T10:15:59.725Z,17.10
2023-05-05T10:18:28.397Z,17.07
2023-05-05T10:21:00.219Z,17.05
2023-05-05T10:23:41.550Z,17.09
2023-05-05T10:26:10.522Z,17.21
2023-05-05T10:28:56.273Z,17.23
2023-05-05T10:31:49.921Z,17.27
2023-05-05T10:34:34.303Z,17.33
2023-05-05T10:37:01.487Z,17.39
2023-05-05T10:39:29.232Z,17.46
2023-05-05T10:42:00.446Z,17.54
2023-05-05T10:44:30.280Z,17.60
2023-05-05T10:46:58.154Z,17.66
2023-05-05T10:50:04.421Z,17.70
2023-05-05T10:52:52.807Z,17.70
2023-05-05T10:55:54.266Z,17.69
2023-05-05T10:58:51.036Z,17.73
2023-05-05T11:01:31.565Z,17.79
2023-05-05T11:04:21.891Z,17.88
2023-05-05T11:07:14.637Z,17.89
2023-05-05T11:10:20.677Z,18.02
2023-05-05T11:12:56.826Z,18.05
2023-05-05T11:15:27.033Z,18.09
2023-05-05T11:18:07.001Z,18.10
2023-05-05T11:20:37.502Z,18.13
2023-05-05T11:23:05.013Z,18.15
2023-05-05T11:25:34.834Z,18.16
2023-05-05T11:28:15.188Z,18.18
2023-05-05T11:30:57.849Z,18.26
2023-05-05T11:33:26.505Z,18.32
2023-05-05T11:36:00.216Z,18.33
2023-05-05T11:38:43.473Z,18.34
2023-05-05T11:41:10.202Z,18.39
2023-05-05T11:43:36.986Z,18.41
2023-05-05T11:46:16.957Z,18.48
2023-05-05T11:48:52.902Z,18.54
2023-05-05T11:51:20.167Z,18.59
2023-05-05T11:53:48.711Z,18.59
2023-05-05T11:56:17.448Z,18.58
2023-05-05T11:58:45.268Z,18.60
2023-05-05T12:01:12.317Z,18.67
2023-05-05T12:03:39.988Z,18.73
2023-05-05T12:06:08.370Z,18.75
2023-05-05T12:08:39.652Z,18.75
2023-05-05T12:11:11.032Z,18.78
2023-05-05T12:13:38.128Z,18.81
2023-05-05T12:16:15.835Z,18.91
2023-05-05T12:18:42.807Z,19.02
2023-05-05T12:21:20.057Z,19.12
2023-05-05T12:23:46.926Z,19.14
2023-05-05T12:26:32.249Z,19.10
2023-05-05T12:29:00.361Z,19.09
2023-05-05T12:31:40.325Z,19.09
2023-05-05T12:34:09.164Z,19.13
2023-05-05T12:36:37.566Z,19.19
2023-05-05T12:39:05.337Z,19.19
2023-05-05T12:41:32.961Z,19.19
2023-05-05T12:44:01.320Z,19.16
2023-05-05T12:46:29.133Z,19.18
2023-05-05T12:49:04.576Z,19.32
2023-05-05T12:51:32.963Z,19.42
2023-05-05T12:54:10.615Z,19.49
2023-05-05T12:56:45.533Z,19.54
2023-05-05T12:59:29.151Z,19.53
2023-05-05T13:02:00.968Z,19.53
2023-05-05T13:04:28.732Z,19.57
2023-05-05T13:07:12.792Z,19.56
2023-05-05T13:09:39.645Z,19.60
2023-05-05T13:12:06.813Z,19.63
2023-05-05T13:14:34.915Z,19.66
2023-05-05T13:17:01.886Z,19.63
2023-05-05T13:19:28.842Z,19.71
2023-05-05T13:21:56.539Z,19.76
2023-05-05T13:24:38.141Z,19.77
2023-05-05T13:27:09.693Z,19.75
2023-05-05T13:29:36.694Z,19.75
2023-05-05T13:32:03.771Z,19.78
2023-05-05T13:34:30.552Z,19.94
2023-05-05T13:36:57.553Z,19.98
2023-05-05T13:39:24.328Z,20.00
2023-05-05T13:41:51.371Z,19.98
2023-05-05T13:44:18.177Z,19.98
2023-05-05T13:46:45.672Z,20.03
2023-05-05T13:49:12.503Z,19.99
2023-05-05T13:51:39.344Z,19.96
2023-05-05T13:54:07.058Z,19.93
2023-05-05T13:56:34.698Z,19.91
2023-05-05T13:59:01.845Z,19.92
2023-05-05T14:01:28.723Z,19.93
2023-05-05T14:03:57.562Z,19.94
2023-05-05T14:06:24.957Z,19.96
2023-05-05T14:08:51.903Z,20.00
2023-05-05T14:11:20.044Z,19.99
2023-05-05T14:13:47.044Z,19.99
2023-05-05T14:16:14.187Z,19.99
2023-05-05T14:18:41.910Z,20.03
2023-05-05T14:21:08.860Z,20.08
2023-05-05T14:23:35.676Z,20.08
2023-05-05T14:26:02.517Z,20.09
2023-05-05T14:28:29.398Z,20.10
2023-05-05T14:30:56.187Z,20.16
2023-05-05T14:33:22.974Z,20.16
2023-05-05T14:35:49.933Z,20.20
2023-05-05T14:38:16.794Z,20.21
2023-05-05T14:40:43.938Z,20.23
2023-05-05T14:43:10.774Z,20.26
2023-05-05T14:45:37.729Z,20.37
2023-05-05T14:48:04.685Z,20.46
2023-05-05T14:50:31.578Z,20.49
2023-05-05T14:52:58.436Z,20.49
2023-05-05T14:55:25.245Z,20.49
2023-05-05T14:57:52.140Z,20.47
2023-05-05T15:00:19.530Z,20.45
2023-05-05T15:02:46.404Z,20.45
2023-05-05T15:05:13.445Z,20.46
2023-05-05T15:07:40.565Z,20.47
2023-05-05T15:10:07.801Z,20.43
2023-05-05T15:12:34.596Z,20.42
2023-05-05T15:15:01.776Z,20.46
2023-05-05T15:17:28.740Z,20.46
2023-05-05T15:19:55.478Z,20.50
2023-05-05T15:22:22.254Z,20.49
2023-05-05T15:24:49.129Z,20.50
2023-05-05T15:27:15.978Z,20.52
2023-05-05T15:29:42.826Z,20.55
2023-05-05T15:32:09.727Z,20.60
2023-05-05T15:34:36.431Z,20.64
2023-05-05T15:37:04.716Z,20.67
2023-05-05T15:39:31.442Z,20.66
2023-05-05T15:42:00.883Z,20.68
2023-05-05T15:44:27.812Z,20.68
2023-05-05T15:46:54.921Z,20.71
2023-05-05T15:49:21.966Z,20.71
2023-05-05T15:51:49.052Z,20.71
2023-05-05T15:54:15.848Z,20.71
2023-05-05T15:56:42.785Z,20.70
2023-05-05T15:59:10.059Z,20.70
2023-05-05T16:01:36.982Z,20.72
2023-05-05T16:04:04.050Z,20.76
2023-05-05T16:06:31.688Z,20.78
2023-05-05T16:08:58.876Z,20.86
2023-05-05T16:11:26.988Z,20.95
2023-05-05T16:13:53.918Z,21.12
2023-05-05T16:16:21.452Z,21.34
2023-05-05T16:18:49.252Z,21.80
2023-05-05T16:21:16.369Z,22.43
2023-05-05T16:23:43.398Z,22.90
2023-05-05T16:26:10.182Z,23.24
2023-05-05T16:28:37.000Z,23.53
2023-05-05T16:31:04.118Z,23.73
2023-05-05T16:33:32.115Z,23.77
2023-05-05T16:35:59.374Z,23.50
2023-05-05T16:38:26.679Z,23.05
2023-05-05T16:40:54.880Z,22.55
2023-05-05T16:43:22.965Z,22.25
2023-05-05T16:45:49.985Z,22.00
2023-05-05T16:48:16.849Z,21.79
2023-05-05T16:50:44.399Z,21.57
2023-05-05T16:53:11.435Z,21.43
2023-05-05T16:55:38.515Z,21.34
2023-05-05T16:58:06.359Z,21.24
2023-05-05T17:00:33.232Z,21.16
2023-05-05T17:03:00.185Z,21.09
2023-05-05T17:05:27.041Z,20.99
2023-05-05T17:07:54.207Z,20.96
2023-05-05T17:10:21.301Z,20.89
2023-05-05T17:12:48.402Z,20.84
2023-05-05T17:15:15.316Z,20.78
2023-05-05T17:17:43.741Z,20.73
2023-05-05T17:20:11.387Z,20.69
2023-05-05T17:22:38.401Z,20.66
2023-05-05T17:25:05.855Z,20.61
2023-05-05T17:27:32.852Z,20.58
2023-05-05T17:29:59.625Z,20.54
2023-05-05T17:32:32.503Z,20.49
2023-05-05T17:34:59.425Z,20.46
2023-05-05T17:37:29.765Z,20.43
2023-05-05T17:39:57.736Z,20.40
2023-05-05T17:42:24.530Z,20.34
2023-05-05T17:44:51.870Z,20.31
2023-05-05T17:47:19.035Z,20.30
2023-05-05T17:49:46.880Z,20.24
2023-05-05T17:52:15.006Z,20.22
2023-05-05T17:54:42.109Z,20.20
2023-05-05T17:57:34.053Z,20.17
2023-05-05T18:00:04.176Z,20.13
2023-05-05T18:02:39.808Z,20.09
2023-05-05T18:05:09.678Z,20.06
2023-05-05T18:07:37.390Z,20.00
2023-05-05T18:10:05.618Z,19.96
2023-05-05T18:12:34.659Z,19.91
2023-05-05T18:15:03.375Z,19.89
2023-05-05T18:17:30.245Z,19.87
2023-05-05T18:19:57.303Z,19.80
2023-05-05T18:22:24.042Z,19.76
2023-05-05T18:24:51.937Z,19.72
2023-05-05T18:27:20.494Z,19.70
2023-05-05T18:29:47.844Z,19.63
2023-05-05T18:32:14.624Z,19.61
2023-05-05T18:34:41.485Z,19.60
2023-05-05T18:37:08.459Z,19.59
2023-05-05T18:39:35.369Z,19.55
2023-05-05T18:42:02.185Z,19.50
2023-05-05T18:44:29.214Z,19.47
2023-05-05T18:46:56.291Z,19.44
2023-05-05T18:49:23.154Z,19.41
2023-05-05T18:51:49.943Z,19.35
2023-05-05T18:54:16.716Z,19.33
2023-05-05T18:56:44.319Z,19.31
2023-05-05T18:59:11.428Z,19.28
2023-05-05T19:01:38.540Z,19.25
2023-05-05T19:04:10.444Z,19.22
2023-05-05T19:06:43.317Z,19.18
2023-05-05T19:09:10.910Z,19.13
2023-05-05T19:11:37.617Z,19.11
2023-05-05T19:14:04.476Z,19.08
2023-05-05T19:16:31.249Z,19.06
2023-05-05T19:18:58.181Z,19.02
2023-05-05T19:21:27.113Z,18.99
2023-05-05T19:23:53.947Z,18.95
2023-05-05T19:26:20.701Z,18.92
2023-05-05T19:28:47.513Z,18.87
2023-05-05T19:31:14.902Z,18.82
2023-05-05T19:33:41.734Z,18.74
2023-05-05T19:36:08.559Z,18.69
2023-05-05T19:38:35.382Z,18.63
2023-05-05T19:41:02.271Z,18.58
2023-05-05T19:43:32.451Z,18.57
2023-05-05T19:45:59.418Z,18.55
2023-05-05T19:48:26.408Z,18.51
2023-05-05T19:50:53.387Z,18.45
2023-05-05T19:53:20.273Z,18.38
2023-05-05T19:55:47.142Z,18.31
2023-05-05T19:58:14.993Z,18.25
2023-05-05T20:00:42.337Z,18.23
2023-05-05T20:03:09.323Z,18.22
2023-05-05T20:05:37.006Z,18.16
2023-05-05T20:08:04.027Z,18.17
2023-05-05T20:10:30.980Z,18.16
2023-05-05T20:12:57.942Z,18.15
2023-05-05T20:15:24.751Z,18.13
2023-05-05T20:17:51.680Z,18.12
2023-05-05T20:20:21.448Z,18.05
2023-05-05T20:22:49.653Z,17.97
2023-05-05T20:25:17.376Z,17.88
2023-05-05T20:27:44.831Z,17.87
2023-05-05T20:30:12.018Z,17.85
2023-05-05T20:32:39.712Z,17.83
2023-05-05T20:35:07.178Z,17.81
2023-05-05T20:37:34.047Z,17.74
2023-05-05T20:40:00.898Z,17.70
2023-05-05T20:42:28.045Z,17.66
2023-05-05T20:44:55.051Z,17.64
2023-05-05T20:47:22.005Z,17.61
2023-05-05T20:49:49.439Z,17.59
2023-05-05T20:52:16.141Z,17.56
2023-05-05T20:54:43.041Z,17.53
2023-05-05T20:57:09.859Z,17.51
2023-05-05T20:59:37.867Z,17.47
2023-05-05T21:02:04.840Z,17.42
2023-05-05T21:04:31.848Z,17.38
2023-05-05T21:06:58.715Z,17.34
2023-05-05T21:09:25.774Z,17.30
2023-05-05T21:11:52.730Z,17.26
2023-05-05T21:14:19.627Z,17.19
2023-05-05T21:16:46.520Z,17.16
2023-05-05T21:19:13.496Z,17.11
2023-05-05T21:21:40.380Z,17.09
2023-05-05T21:24:08.183Z,17.06
2023-05-05T21:26:35.131Z,17.06
2023-05-05T21:29:01.936Z,17.03
2023-05-05T21:31:29.988Z,16.99
2023-05-05T21:33:57.338Z,16.93
2023-05-05T21:36:24.383Z,16.88
2023-05-05T21:38:51.177Z,16.83
2023-05-05T21:41:17.906Z,16.80
2023-05-05T21:43:44.977Z,16.72
2023-05-05T21:46:11.810Z,16.62
2023-05-05T21:48:39.380Z,16.56
2023-05-05T21:51:06.336Z,16.51
2023-05-05T21:53:33.146Z,16.47
2023-05-05T21:56:00.216Z,16.46
2023-05-05T21:58:27.086Z,16.45
2023-05-05T22:00:54.024Z,16.46
2023-05-05T22:03:21.661Z,16.44
2023-05-05T22:05:48.664Z,16.39
2023-05-05T22:08:15.611Z,16.34
2023-05-05T22:10:42.930Z,16.28
2023-05-05T22:13:10.754Z,16.23
2023-05-05T22:15:45.821Z,16.20
2023-05-05T22:18:14.780Z,16.17
2023-05-05T22:20:41.844Z,16.13
2023-05-05T22:23:08.758Z,16.13
2023-05-05T22:25:35.760Z,16.09
2023-05-05T22:28:02.683Z,16.07
2023-05-05T22:30:29.529Z,16.01
2023-05-05T22:32:56.386Z,15.99
2023-05-05T22:35:23.248Z,15.98
2023-05-05T22:37:49.993Z,15.99
2023-05-05T22:40:16.847Z,15.97
2023-05-05T22:42:43.782Z,15.92
2023-05-05T22:45:11.351Z,15.94
2023-05-05T22:47:38.937Z,15.93
2023-05-05T22:50:06.298Z,15.88
2023-05-05T22:52:33.184Z,15.91
2023-05-05T22:54:59.931Z,15.87
2023-05-05T22:57:26.898Z,15.92
2023-05-05T22:59:53.772Z,15.95
2023-05-05T23:02:20.519Z,15.99
2023-05-05T23:04:47.746Z,16.00
2023-05-05T23:07:14.505Z,15.99
2023-05-05T23:09:42.110Z,15.95
2023-05-05T23:12:08.876Z,15.94
2023-05-05T23:14:36.105Z,15.91
2023-05-05T23:20:19.109Z,15.89
2023-05-05T23:22:46.097Z,15.87
2023-05-05T23:25:12.992Z,15.84
2023-05-05T23:27:40.062Z,15.83
2023-05-05T23:30:08.889Z,15.74
2023-05-05T23:32:35.789Z,15.65
2023-05-05T23:35:02.718Z,15.67
2023-05-05T23:37:29.646Z,15.66
2023-05-05T23:39:56.939Z,15.63
2023-05-05T23:42:24.501Z,15.60
2023-05-05T23:44:51.661Z,15.57
2023-05-05T23:47:18.461Z,15.55
2023-05-05T23:49:45.445Z,15.50
2023-05-05T23:52:13.361Z,15.44
2023-05-05T23:54:40.640Z,15.35
2023-05-05T23:57:07.426Z,15.27
2023-05-05T23:59:34.960Z,15.21
